createdAt,value
2022-10-26T00:01:36.341Z,14.32
2022-10-26T00:04:04.372Z,14.26
2022-10-26T00:06:32.214Z,14.29
2022-10-26T00:09:00.112Z,14.24
2022-10-26T00:11:29.334Z,14.27
2022-10-26T00:13:57.252Z,14.30
2022-10-26T00:16:27.370Z,14.26
2022-10-26T00:18:55.727Z,14.30
2022-10-26T00:21:23.593Z,14.33
2022-10-26T00:23:51.454Z,14.29
2022-10-26T00:26:19.536Z,14.25
2022-10-26T00:28:48.903Z,14.18
2022-10-26T00:31:17.527Z,14.12
2022-10-26T00:33:45.427Z,14.05
2022-10-26T00:36:16.675Z,14.10
2022-10-26T00:38:49.051Z,14.09
2022-10-26T00:41:17.385Z,14.06
2022-10-26T00:43:45.404Z,14.01
2022-10-26T00:46:18.448Z,14.07
2022-10-26T00:48:51.126Z,13.98
2022-10-26T00:51:26.525Z,14.04
2022-10-26T00:53:56.102Z,14.03
2022-10-26T00:56:25.053Z,13.98
2022-10-26T00:58:53.634Z,14.02
2022-10-26T01:01:22.963Z,13.99
2022-10-26T01:03:50.944Z,14.02
2022-10-26T01:06:19.909Z,14.02
2022-10-26T01:08:48.346Z,14.02
2022-10-26T01:11:17.068Z,13.91
2022-10-26T01:13:47.193Z,13.90
2022-10-26T01:16:42.784Z,13.98
2022-10-26T01:19:52.804Z,13.92
2022-10-26T01:22:23.476Z,13.94
2022-10-26T01:25:09.660Z,13.88
2022-10-26T01:27:39.899Z,13.81
2022-10-26T01:30:33.034Z,13.86
2022-10-26T01:33:14.421Z,13.77
2022-10-26T01:35:52.035Z,13.87
2022-10-26T01:38:28.244Z,13.68
2022-10-26T01:41:04.012Z,13.73
2022-10-26T01:43:36.449Z,13.74
2022-10-26T01:46:08.163Z,13.67
2022-10-26T01:48:37.510Z,13.66
2022-10-26T01:51:07.105Z,13.79
2022-10-26T01:53:34.987Z,13.66
2022-10-26T01:56:03.453Z,13.64
2022-10-26T01:58:59.602Z,13.67
2022-10-26T02:01:55.066Z,13.68
2022-10-26T02:04:36.434Z,13.66
2022-10-26T02:07:11.288Z,13.61
2022-10-26T02:09:47.243Z,13.51
2022-10-26T02:12:24.306Z,13.33
2022-10-26T02:15:01.155Z,13.45
2022-10-26T02:17:36.575Z,13.41
2022-10-26T02:20:06.581Z,13.41
2022-10-26T02:22:37.951Z,13.51
2022-10-26T02:25:10.229Z,13.43
2022-10-26T02:27:43.621Z,13.56
2022-10-26T02:30:12.246Z,13.36
2022-10-26T02:32:46.187Z,13.41
2022-10-26T02:35:16.718Z,13.37
2022-10-26T02:37:47.905Z,13.37
2022-10-26T02:40:21.519Z,13.38
2022-10-26T02:42:53.193Z,13.34
2022-10-26T02:45:26.681Z,13.26
2022-10-26T02:47:57.024Z,13.24
2022-10-26T02:50:31.480Z,13.30
2022-10-26T02:53:07.748Z,13.31
2022-10-26T02:55:40.381Z,13.29
2022-10-26T02:58:16.710Z,13.20
2022-10-26T03:00:45.730Z,13.27
2022-10-26T03:03:15.709Z,13.37
2022-10-26T03:05:44.010Z,13.29
2022-10-26T03:08:12.168Z,13.36
2022-10-26T03:10:43.169Z,13.35
2022-10-26T03:13:11.959Z,13.44
2022-10-26T03:15:40.188Z,13.33
2022-10-26T03:18:08.643Z,13.34
2022-10-26T03:20:37.886Z,13.42
2022-10-26T03:23:05.743Z,13.37
2022-10-26T03:25:33.597Z,13.29
2022-10-26T03:28:02.593Z,13.23
2022-10-26T03:30:31.750Z,13.25
2022-10-26T03:32:59.749Z,13.25
2022-10-26T03:35:27.751Z,13.33
2022-10-26T03:37:57.004Z,13.22
2022-10-26T03:40:25.161Z,13.23
2022-10-26T03:42:53.317Z,13.26
2022-10-26T03:45:21.489Z,13.25
2022-10-26T03:47:50.519Z,13.22
2022-10-26T03:50:20.158Z,13.17
2022-10-26T03:52:48.849Z,13.14
2022-10-26T03:55:19.381Z,13.28
2022-10-26T03:57:47.403Z,13.18
2022-10-26T04:00:17.512Z,13.12
2022-10-26T04:02:48.588Z,13.19
2022-10-26T04:05:17.153Z,13.13
2022-10-26T04:07:45.057Z,13.17
2022-10-26T04:10:12.936Z,13.16
2022-10-26T04:12:42.155Z,13.13
2022-10-26T04:15:10.781Z,13.11
2022-10-26T04:17:38.728Z,13.10
2022-10-26T04:20:07.603Z,13.01
2022-10-26T04:22:36.475Z,13.04
2022-10-26T04:25:04.371Z,13.07
2022-10-26T04:27:32.404Z,13.08
2022-10-26T04:30:01.628Z,12.96
2022-10-26T04:32:29.465Z,12.99
2022-10-26T04:34:57.285Z,12.81
2022-10-26T04:37:25.110Z,12.86
2022-10-26T04:39:53.004Z,12.97
2022-10-26T04:42:21.145Z,12.96
2022-10-26T04:44:49.069Z,12.90
2022-10-26T04:47:18.263Z,12.91
2022-10-26T04:49:46.088Z,12.95
2022-10-26T04:52:13.931Z,12.94
2022-10-26T04:54:41.775Z,12.93
2022-10-26T04:57:09.658Z,12.95
2022-10-26T04:59:37.447Z,12.92
2022-10-26T05:02:05.426Z,12.80
2022-10-26T05:04:34.766Z,12.87
2022-10-26T05:07:02.811Z,12.89
2022-10-26T05:09:30.655Z,12.75
2022-10-26T05:11:58.512Z,12.86
2022-10-26T05:14:26.325Z,12.87
2022-10-26T05:16:55.596Z,12.84
2022-10-26T05:19:23.466Z,12.89
2022-10-26T05:21:53.361Z,12.91
2022-10-26T05:24:21.279Z,12.92
2022-10-26T05:26:49.183Z,12.89
2022-10-26T05:29:17.082Z,12.87
2022-10-26T05:31:44.941Z,12.66
2022-10-26T05:34:12.802Z,12.83
2022-10-26T05:36:40.728Z,12.85
2022-10-26T05:39:09.987Z,12.83
2022-10-26T05:41:37.873Z,12.77
2022-10-26T05:44:05.911Z,12.82
2022-10-26T05:46:33.809Z,12.65
2022-10-26T05:49:01.742Z,12.74
2022-10-26T05:51:29.644Z,12.81
2022-10-26T05:53:57.630Z,12.82
2022-10-26T05:56:36.426Z,12.74
2022-10-26T05:59:05.375Z,12.76
2022-10-26T06:01:45.037Z,12.77
2022-10-26T06:04:27.369Z,12.83
2022-10-26T06:06:56.382Z,12.96
2022-10-26T06:09:24.869Z,12.96
2022-10-26T06:11:54.904Z,12.85
2022-10-26T06:14:23.321Z,12.92
2022-10-26T06:17:04.822Z,12.96
2022-10-26T06:19:47.358Z,13.02
2022-10-26T06:22:33.607Z,13.01
2022-10-26T06:25:15.992Z,12.99
2022-10-26T06:27:52.474Z,13.00
2022-10-26T06:30:23.344Z,13.06
2022-10-26T06:33:01.159Z,13.06
2022-10-26T06:35:41.609Z,12.99
2022-10-26T06:38:14.803Z,12.97
2022-10-26T06:40:46.248Z,13.08
2022-10-26T06:43:25.039Z,13.08
2022-10-26T06:46:05.036Z,13.09
2022-10-26T06:48:44.959Z,13.07
2022-10-26T06:51:16.532Z,13.14
2022-10-26T06:53:53.632Z,12.98
2022-10-26T06:56:24.210Z,13.13
2022-10-26T06:58:57.093Z,13.14
2022-10-26T07:01:25.045Z,13.07
2022-10-26T07:03:52.987Z,13.06
2022-10-26T07:06:20.889Z,13.10
2022-10-26T07:08:49.265Z,13.09
2022-10-26T07:11:17.130Z,13.18
2022-10-26T07:13:44.927Z,13.19
2022-10-26T07:16:14.244Z,13.21
2022-10-26T07:18:42.110Z,13.24
2022-10-26T07:21:10.513Z,13.31
2022-10-26T07:23:38.721Z,13.41
2022-10-26T07:26:06.878Z,13.43
2022-10-26T07:28:36.489Z,13.23
2022-10-26T07:31:05.555Z,13.29
2022-10-26T07:33:36.942Z,13.47
2022-10-26T07:36:10.907Z,13.49
2022-10-26T07:38:39.321Z,13.40
2022-10-26T07:41:07.750Z,13.62
2022-10-26T07:43:35.575Z,13.56
2022-10-26T07:46:03.648Z,13.47
2022-10-26T07:48:31.629Z,13.76
2022-10-26T07:51:03.065Z,13.74
2022-10-26T07:53:31.458Z,13.90
2022-10-26T07:55:59.369Z,13.79
2022-10-26T07:58:27.879Z,13.99
2022-10-26T08:00:56.918Z,14.06
2022-10-26T08:03:25.108Z,14.07
2022-10-26T08:05:55.768Z,14.19
2022-10-26T08:08:25.049Z,14.28
2022-10-26T08:10:53.095Z,14.27
2022-10-26T08:13:20.968Z,14.41
2022-10-26T08:15:48.828Z,14.33
2022-10-26T08:18:17.035Z,14.29
2022-10-26T08:20:45.365Z,14.39
2022-10-26T08:23:13.405Z,14.60
2022-10-26T08:25:42.736Z,14.58
2022-10-26T08:28:10.728Z,14.38
2022-10-26T08:30:38.821Z,14.57
2022-10-26T08:33:08.747Z,14.63
2022-10-26T08:35:36.793Z,14.82
2022-10-26T08:38:04.766Z,14.92
2022-10-26T08:40:35.688Z,15.06
2022-10-26T08:43:11.304Z,15.31
2022-10-26T08:45:42.465Z,15.43
2022-10-26T08:48:16.111Z,15.41
2022-10-26T08:50:50.531Z,15.50
2022-10-26T08:53:25.689Z,15.51
2022-10-26T08:55:57.615Z,15.54
2022-10-26T08:58:31.461Z,15.65
2022-10-26T09:01:00.031Z,15.69
2022-10-26T09:03:28.074Z,15.68
2022-10-26T09:06:14.438Z,15.95
2022-10-26T09:08:55.837Z,15.98
2022-10-26T09:11:37.554Z,16.04
2022-10-26T09:14:13.742Z,15.91
2022-10-26T09:16:52.144Z,16.13
2022-10-26T09:19:36.813Z,16.60
2022-10-26T09:22:13.181Z,16.43
2022-10-26T09:24:48.603Z,16.65
2022-10-26T09:27:22.712Z,16.86
2022-10-26T09:29:53.281Z,16.76
2022-10-26T09:32:22.542Z,17.23
2022-10-26T09:34:53.494Z,17.29
2022-10-26T09:37:25.393Z,17.55
2022-10-26T09:40:00.310Z,18.04
2022-10-26T09:42:35.941Z,18.33
2022-10-26T09:45:13.397Z,17.74
2022-10-26T09:47:46.161Z,17.72
2022-10-26T09:50:23.680Z,17.73
2022-10-26T09:52:51.741Z,18.41
2022-10-26T09:55:20.990Z,18.27
2022-10-26T09:57:51.482Z,18.71
2022-10-26T10:00:23.333Z,19.38
2022-10-26T10:02:53.163Z,19.01
2022-10-26T10:05:49.666Z,19.12
2022-10-26T10:08:19.149Z,19.46
2022-10-26T10:11:03.163Z,19.61
2022-10-26T10:13:32.939Z,19.89
2022-10-26T10:16:07.985Z,20.15
2022-10-26T10:18:36.562Z,19.80
2022-10-26T10:21:05.983Z,19.99
2022-10-26T10:23:35.887Z,19.78
2022-10-26T10:26:07.248Z,19.50
2022-10-26T10:28:36.064Z,20.07
2022-10-26T10:31:19.302Z,19.95
2022-10-26T10:33:49.238Z,19.66
2022-10-26T10:36:19.852Z,20.15
2022-10-26T10:38:49.578Z,20.34
2022-10-26T10:41:25.808Z,20.55
2022-10-26T10:43:57.019Z,20.47
2022-10-26T10:46:29.179Z,19.90
2022-10-26T10:49:04.686Z,20.50
2022-10-26T10:51:39.589Z,20.71
2022-10-26T10:54:19.159Z,21.71
2022-10-26T10:56:50.899Z,21.07
2022-10-26T10:59:35.276Z,21.24
2022-10-26T11:02:55.665Z,20.49
2022-10-26T11:05:34.576Z,20.78
2022-10-26T11:08:08.746Z,21.37
2022-10-26T11:10:40.277Z,21.19
2022-10-26T11:13:16.603Z,21.86
2022-10-26T11:15:47.629Z,21.97
2022-10-26T11:18:20.189Z,22.48
2022-10-26T11:20:52.195Z,22.07
2022-10-26T11:23:27.141Z,22.41
2022-10-26T11:26:00.214Z,22.12
2022-10-26T11:28:38.517Z,22.58
2022-10-26T11:31:12.495Z,22.38
2022-10-26T11:33:46.855Z,22.04
2022-10-26T11:36:21.797Z,22.13
2022-10-26T11:38:57.712Z,21.78
2022-10-26T11:41:30.576Z,22.58
2022-10-26T11:44:05.114Z,22.36
2022-10-26T11:46:37.937Z,22.91
2022-10-26T11:49:14.306Z,22.73
2022-10-26T11:51:49.952Z,23.09
2022-10-26T11:54:22.714Z,22.50
2022-10-26T11:56:54.929Z,22.73
2022-10-26T11:59:27.964Z,23.15
2022-10-26T12:02:05.412Z,23.06
2022-10-26T12:04:38.281Z,22.69
2022-10-26T12:07:15.308Z,22.93
2022-10-26T12:09:45.652Z,22.56
2022-10-26T12:12:21.980Z,22.82
2022-10-26T12:14:57.888Z,22.48
2022-10-26T12:17:30.923Z,21.84
2022-10-26T12:20:05.455Z,21.80
2022-10-26T12:22:36.052Z,22.01
2022-10-26T12:25:14.638Z,21.90
2022-10-26T12:27:55.066Z,21.83
2022-10-26T12:30:34.536Z,21.92
2022-10-26T12:33:05.279Z,21.55
2022-10-26T12:35:37.454Z,21.25
2022-10-26T12:38:43.952Z,21.59
2022-10-26T12:41:23.712Z,21.81
2022-10-26T12:43:55.913Z,21.51
2022-10-26T12:46:42.449Z,21.67
2022-10-26T12:49:49.311Z,21.13
2022-10-26T12:52:32.582Z,21.25
2022-10-26T12:55:25.128Z,21.36
2022-10-26T12:58:04.565Z,21.47
2022-10-26T13:03:24.863Z,21.43
2022-10-26T13:06:18.157Z,21.39
2022-10-26T13:08:55.148Z,21.30
2022-10-26T13:11:31.561Z,21.56
2022-10-26T13:14:02.875Z,21.41
2022-10-26T13:16:32.012Z,21.24
2022-10-26T13:19:01.429Z,21.08
2022-10-26T13:21:29.502Z,21.00
2022-10-26T13:24:05.306Z,21.31
2022-10-26T13:26:34.291Z,21.27
2022-10-26T13:29:04.145Z,21.23
2022-10-26T13:31:54.864Z,21.08
2022-10-26T13:34:29.260Z,21.07
2022-10-26T13:37:06.183Z,21.20
2022-10-26T13:39:38.993Z,21.32
2022-10-26T13:42:08.698Z,21.11
2022-10-26T13:44:40.348Z,21.13
2022-10-26T13:47:11.835Z,20.95
2022-10-26T13:49:41.616Z,21.13
2022-10-26T13:52:17.060Z,21.12
2022-10-26T13:54:50.154Z,21.18
2022-10-26T13:57:21.426Z,20.98
2022-10-26T13:59:49.344Z,20.96
2022-10-26T14:02:20.625Z,21.03
2022-10-26T14:04:52.469Z,21.23
2022-10-26T14:07:23.667Z,21.12
2022-10-26T14:09:55.383Z,21.16
2022-10-26T14:12:24.208Z,21.21
2022-10-26T14:14:54.405Z,21.29
2022-10-26T14:17:25.593Z,21.19
2022-10-26T14:19:54.300Z,21.02
2022-10-26T14:22:24.253Z,21.23
2022-10-26T14:27:33.766Z,21.21
2022-10-26T14:30:21.496Z,21.18
2022-10-26T14:32:50.932Z,21.12
2022-10-26T14:35:21.395Z,21.15
2022-10-26T14:37:53.280Z,21.12
2022-10-26T14:40:26.096Z,20.99
2022-10-26T14:42:56.782Z,20.84
2022-10-26T14:45:47.562Z,20.79
2022-10-26T14:48:23.880Z,20.77
2022-10-26T14:51:10.521Z,20.67
2022-10-26T14:53:40.444Z,20.69
2022-10-26T14:56:23.624Z,20.53
2022-10-26T14:58:52.227Z,20.41
2022-10-26T15:01:36.291Z,20.40
2022-10-26T15:04:06.448Z,20.49
2022-10-26T15:06:43.440Z,20.65
2022-10-26T15:09:32.828Z,20.51
2022-10-26T15:12:03.928Z,20.60
2022-10-26T15:14:32.391Z,20.42
2022-10-26T15:17:00.948Z,20.31
2022-10-26T15:19:29.446Z,20.49
2022-10-26T15:21:57.663Z,20.62
2022-10-26T15:24:38.951Z,20.43
2022-10-26T15:27:17.014Z,20.49
2022-10-26T15:29:46.953Z,20.35
2022-10-26T15:32:32.781Z,20.31
2022-10-26T15:35:15.104Z,20.46
2022-10-26T15:37:43.343Z,20.23
2022-10-26T15:40:12.231Z,20.33
2022-10-26T15:42:42.849Z,20.34
2022-10-26T15:45:18.593Z,20.22
2022-10-26T15:47:47.218Z,20.17
2022-10-26T15:50:15.803Z,20.18
2022-10-26T15:52:46.689Z,19.96
2022-10-26T15:55:17.087Z,19.87
2022-10-26T15:57:46.493Z,19.77
2022-10-26T16:00:19.151Z,19.81
2022-10-26T16:02:47.434Z,19.70
2022-10-26T16:05:17.042Z,19.68
2022-10-26T16:07:48.145Z,19.67
2022-10-26T16:10:21.279Z,19.70
2022-10-26T16:12:50.713Z,19.53
2022-10-26T16:15:21.054Z,19.60
2022-10-26T16:17:50.066Z,19.53
2022-10-26T16:20:22.698Z,19.52
2022-10-26T16:22:51.721Z,19.54
2022-10-26T16:25:22.740Z,19.50
2022-10-26T16:27:52.815Z,19.36
2022-10-26T16:30:22.380Z,19.31
2022-10-26T16:32:51.833Z,19.46
2022-10-26T16:35:19.856Z,19.47
2022-10-26T16:37:47.696Z,19.29
2022-10-26T16:40:15.565Z,19.30
2022-10-26T16:42:44.523Z,19.40
2022-10-26T16:45:14.465Z,19.37
2022-10-26T16:47:42.331Z,19.39
2022-10-26T16:50:11.967Z,19.37
2022-10-26T16:52:40.608Z,19.27
2022-10-26T16:55:10.031Z,19.38
2022-10-26T16:57:38.677Z,19.17
2022-10-26T17:00:08.378Z,19.11
2022-10-26T17:02:37.716Z,19.03
2022-10-26T17:05:07.566Z,19.15
2022-10-26T17:07:35.779Z,19.15
2022-10-26T17:10:03.597Z,19.15
2022-10-26T17:12:31.679Z,19.28
2022-10-26T17:15:00.614Z,19.30
2022-10-26T17:17:28.544Z,19.12
2022-10-26T17:19:58.096Z,19.23
2022-10-26T17:22:25.897Z,19.23
2022-10-26T17:24:53.734Z,19.20
2022-10-26T17:27:22.999Z,19.02
2022-10-26T17:29:50.844Z,19.15
2022-10-26T17:32:18.663Z,18.99
2022-10-26T17:34:46.531Z,19.17
2022-10-26T17:37:15.757Z,19.18
2022-10-26T17:39:43.629Z,19.00
2022-10-26T17:42:11.447Z,19.05
2022-10-26T17:44:39.959Z,19.09
2022-10-26T17:47:08.725Z,19.09
2022-10-26T17:49:36.603Z,19.23
2022-10-26T17:52:05.929Z,19.18
2022-10-26T17:54:35.202Z,19.08
2022-10-26T17:57:03.264Z,19.00
2022-10-26T17:59:31.113Z,19.10
2022-10-26T18:01:59.000Z,19.09
2022-10-26T18:04:26.988Z,19.06
2022-10-26T18:06:54.856Z,19.06
2022-10-26T18:09:22.908Z,19.10
2022-10-26T18:11:54.966Z,19.12
2022-10-26T18:14:24.129Z,19.15
2022-10-26T18:16:52.126Z,18.96
2022-10-26T18:19:20.224Z,19.08
2022-10-26T18:21:48.295Z,19.08
2022-10-26T18:24:16.387Z,19.03
2022-10-26T18:26:44.462Z,19.04
2022-10-26T18:29:14.448Z,19.04
2022-10-26T18:31:42.427Z,19.01
2022-10-26T18:34:11.437Z,19.03
2022-10-26T18:36:39.257Z,18.89
2022-10-26T18:39:07.676Z,18.93
2022-10-26T18:41:35.580Z,18.87
2022-10-26T18:44:03.422Z,18.92
2022-10-26T18:46:39.655Z,18.94
2022-10-26T18:49:09.640Z,19.02
2022-10-26T18:51:37.462Z,19.01
2022-10-26T18:54:05.868Z,18.79
2022-10-26T18:56:33.673Z,18.89
2022-10-26T18:59:02.434Z,18.79
2022-10-26T19:01:33.354Z,18.90
2022-10-26T19:04:03.099Z,18.94
2022-10-26T19:06:32.725Z,18.89
2022-10-26T19:09:01.402Z,18.95
2022-10-26T19:11:31.829Z,19.03
2022-10-26T19:13:59.963Z,19.00
2022-10-26T19:16:46.704Z,18.83
2022-10-26T19:19:17.769Z,19.00
2022-10-26T19:21:46.315Z,18.99
2022-10-26T19:24:16.887Z,18.91
2022-10-26T19:26:45.066Z,18.88
2022-10-26T19:29:15.313Z,18.79
2022-10-26T19:31:44.866Z,18.74
2022-10-26T19:34:14.261Z,18.68
2022-10-26T19:36:45.013Z,18.55
2022-10-26T19:39:14.348Z,18.65
2022-10-26T19:41:42.224Z,18.61
2022-10-26T19:44:11.780Z,18.63
2022-10-26T19:46:39.863Z,18.54
2022-10-26T19:49:08.048Z,18.53
2022-10-26T19:51:36.079Z,18.42
2022-10-26T19:54:07.067Z,18.22
2022-10-26T19:56:35.973Z,18.27
2022-10-26T19:59:03.940Z,18.24
2022-10-26T20:01:31.822Z,18.19
2022-10-26T20:04:02.253Z,18.19
2022-10-26T20:06:30.812Z,18.15
2022-10-26T20:08:59.851Z,18.11
2022-10-26T20:11:31.958Z,18.06
2022-10-26T20:13:59.814Z,18.09
2022-10-26T20:16:28.121Z,17.94
2022-10-26T20:18:56.016Z,17.97
2022-10-26T20:21:23.835Z,17.88
2022-10-26T20:23:51.735Z,17.79
2022-10-26T20:26:20.829Z,17.76
2022-10-26T20:28:51.908Z,17.76
2022-10-26T20:31:20.130Z,17.75
2022-10-26T20:33:51.677Z,17.72
2022-10-26T20:36:19.582Z,17.72
2022-10-26T20:38:47.983Z,17.60
2022-10-26T20:41:16.444Z,17.54
2022-10-26T20:43:44.895Z,17.46
2022-10-26T20:46:22.210Z,17.55
2022-10-26T20:48:51.082Z,17.52
2022-10-26T20:51:23.903Z,17.47
2022-10-26T20:54:02.535Z,17.49
2022-10-26T20:56:30.831Z,17.43
2022-10-26T20:59:01.476Z,17.44
2022-10-26T21:01:33.111Z,17.49
2022-10-26T21:04:03.339Z,17.46
2022-10-26T21:06:39.732Z,17.39
2022-10-26T21:09:08.294Z,17.16
2022-10-26T21:11:36.355Z,17.32
2022-10-26T21:14:05.353Z,17.37
2022-10-26T21:16:34.596Z,17.28
2022-10-26T21:19:04.891Z,17.37
2022-10-26T21:21:32.820Z,17.25
2022-10-26T21:24:00.774Z,17.23
2022-10-26T21:26:28.641Z,17.28
2022-10-26T21:28:56.468Z,17.27
2022-10-26T21:31:24.452Z,17.37
2022-10-26T21:33:53.639Z,17.30
2022-10-26T21:36:21.864Z,17.27
2022-10-26T21:38:49.726Z,17.18
2022-10-26T21:41:19.618Z,17.27
2022-10-26T21:43:59.043Z,17.14
2022-10-26T21:46:37.529Z,17.21
2022-10-26T21:49:06.880Z,17.09
2022-10-26T21:51:35.976Z,16.95
2022-10-26T21:54:04.011Z,17.09
2022-10-26T21:56:31.862Z,17.04
2022-10-26T21:59:00.617Z,17.05
2022-10-26T22:01:28.496Z,16.96
2022-10-26T22:03:56.420Z,17.12
2022-10-26T22:06:25.727Z,17.14
2022-10-26T22:08:53.981Z,17.09
2022-10-26T22:11:23.814Z,17.09
2022-10-26T22:13:52.803Z,17.02
2022-10-26T22:16:23.344Z,17.03
2022-10-26T22:18:53.301Z,17.02
2022-10-26T22:21:22.854Z,16.76
2022-10-26T22:23:52.212Z,16.77
2022-10-26T22:26:22.052Z,16.80
2022-10-26T22:28:52.128Z,16.87
2022-10-26T22:31:22.896Z,16.79
2022-10-26T22:33:54.641Z,16.49
2022-10-26T22:36:23.668Z,16.68
2022-10-26T22:38:53.532Z,16.71
2022-10-26T22:41:22.831Z,16.67
2022-10-26T22:43:51.746Z,16.61
2022-10-26T22:46:22.109Z,16.54
2022-10-26T22:48:54.497Z,16.65
2022-10-26T22:51:23.809Z,16.64
2022-10-26T22:53:54.345Z,16.61
2022-10-26T22:56:24.111Z,16.54
2022-10-26T22:58:53.014Z,16.58
2022-10-26T23:01:23.196Z,16.53
2022-10-26T23:03:51.277Z,16.46
2022-10-26T23:06:20.687Z,16.51
2022-10-26T23:08:48.546Z,16.36
2022-10-26T23:11:20.036Z,16.39
2022-10-26T23:13:48.207Z,16.42
2022-10-26T23:16:17.930Z,16.38
2022-10-26T23:18:45.803Z,16.41
2022-10-26T23:21:15.406Z,16.39
2022-10-26T23:23:43.602Z,16.36
2022-10-26T23:26:13.568Z,16.37
2022-10-26T23:28:43.774Z,16.21
2022-10-26T23:31:16.554Z,16.22
2022-10-26T23:33:44.493Z,16.37
2022-10-26T23:36:12.367Z,16.20
2022-10-26T23:38:40.177Z,16.21
2022-10-26T23:41:10.826Z,16.32
2022-10-26T23:43:42.208Z,16.31
2022-10-26T23:46:10.485Z,16.26
2022-10-26T23:48:38.435Z,16.18
2022-10-26T23:51:06.375Z,16.24
2022-10-26T23:53:34.398Z,16.27
2022-10-26T23:56:02.571Z,16.30
2022-10-26T23:58:30.416Z,16.11
